Time;durP1;ratioP1;P1;durP2;ratioP2;P2;SDS_P1;SDS_P2;PMS_P1;PMS_P2;Temp;Humidity;BMP_temperature;BMP_pressure;BME280_temperature;BME280_humidity;BME280_pressure;Samples;Min_cycle;Max_cycle;Signal;HPM_P1;HPM_P2
2023/07/06 00:00:50;;;;;;;3.60;3.22;;;;;;;;;;5096990;28;20051;-82
2023/07/06 00:03:16;;;;;;;6.88;3.47;;;;;;;;;;5078877;28;20024;-86
2023/07/06 00:05:44;;;;;;;7.63;3.60;;;;;;;;;;5077955;28;20524;-83
2023/07/06 00:08:13;;;;;;;5.80;3.60;;;;;;;;;;5079215;28;20036;-85
2023/07/06 00:10:41;;;;;;;5.18;3.40;;;;;;;;;;5094332;28;20146;-82
2023/07/06 00:13:07;;;;;;;4.85;3.45;;;;;;;;;;5085780;28;20032;-84
2023/07/06 00:15:33;;;;;;;6.30;3.80;;;;;;;;;;5083827;28;20398;-84
2023/07/06 00:18:01;;;;;;;5.40;3.70;;;;;;;;;;5079756;28;20028;-84
2023/07/06 00:20:28;;;;;;;5.05;3.30;;;;;;;;;;5094584;28;20032;-84
2023/07/06 00:22:54;;;;;;;5.70;3.13;;;;;;;;;;5088279;28;20050;-82
2023/07/06 00:25:19;;;;;;;3.58;2.78;;;;;;;;;;5094291;28;20040;-85
2023/07/06 00:27:44;;;;;;;4.35;3.35;;;;;;;;;;5098160;28;20074;-85
2023/07/06 00:30:18;;;;;;;5.03;3.13;;;;;;;;;;5097057;28;20020;-84
2023/07/06 00:32:44;;;;;;;4.68;3.53;;;;;;;;;;5089538;28;20512;-84
2023/07/06 00:35:12;;;;;;;6.05;3.38;;;;;;;;;;5088096;28;20024;-83
2023/07/06 00:37:38;;;;;;;5.28;3.08;;;;;;;;;;5096052;28;20123;-83
2023/07/06 00:40:08;;;;;;;4.00;3.00;;;;;;;;;;5096363;28;20044;-84
2023/07/06 00:42:34;;;;;;;4.50;3.35;;;;;;;;;;5095787;28;20076;-83
2023/07/06 00:44:59;;;;;;;3.47;3.17;;;;;;;;;;5094554;28;20020;-83
2023/07/06 00:47:29;;;;;;;6.38;3.63;;;;;;;;;;5089126;28;20028;-84
2023/07/06 00:49:56;;;;;;;6.53;3.03;;;;;;;;;;5094514;28;20496;-84
2023/07/06 00:52:22;;;;;;;4.18;3.20;;;;;;;;;;5097612;28;20024;-82
2023/07/06 00:54:48;;;;;;;7.15;3.70;;;;;;;;;;5095790;28;20162;-83
2023/07/06 00:57:16;;;;;;;5.25;3.22;;;;;;;;;;5071427;28;20120;-82
2023/07/06 00:59:41;;;;;;;4.10;3.50;;;;;;;;;;5096951;28;20024;-81
2023/07/06 01:02:13;;;;;;;6.10;3.92;;;;;;;;;;5096323;28;20051;-83
2023/07/06 01:04:39;;;;;;;4.45;3.72;;;;;;;;;;5096367;28;20036;-83
2023/07/06 01:07:07;;;;;;;5.63;4.00;;;;;;;;;;5093514;28;20063;-85
2023/07/06 01:09:32;;;;;;;5.82;3.92;;;;;;;;;;5097127;28;20043;-83
2023/07/06 01:11:58;;;;;;;7.75;4.03;;;;;;;;;;5093741;28;20119;-85
2023/07/06 01:14:26;;;;;;;7.18;3.80;;;;;;;;;;5096230;28;20097;-83
2023/07/06 01:17:06;;;;;;;4.85;3.70;;;;;;;;;;5095773;28;20032;-83
2023/07/06 01:19:54;;;;;;;5.90;4.13;;;;;;;;;;5085344;28;20032;-83
2023/07/06 01:22:42;;;;;;;5.43;3.95;;;;;;;;;;5085667;28;20339;-83
2023/07/06 01:25:28;;;;;;;4.60;3.67;;;;;;;;;;5069066;28;20036;-84
2023/07/06 01:28:21;;;;;;;6.93;3.72;;;;;;;;;;5087231;28;20047;-82
2023/07/06 01:31:11;;;;;;;5.22;4.07;;;;;;;;;;5081395;28;20089;-82
2023/07/06 01:33:47;;;;;;;8.57;4.13;;;;;;;;;;5094326;28;20024;-83
2023/07/06 01:36:21;;;;;;;8.98;4.18;;;;;;;;;;5099992;28;20050;-83
2023/07/06 01:38:49;;;;;;;;;;;;;;;;;;5098971;28;20485;-82
2023/07/06 01:41:26;;;;;;;5.80;4.10;;;;;;;;;;5085791;28;19919;-84
2023/07/06 01:43:51;;;;;;;4.70;3.80;;;;;;;;;;5079914;28;20036;-84
2023/07/06 01:46:17;;;;;;;5.40;4.00;;;;;;;;;;5100202;28;20394;-85
2023/07/06 01:48:43;;;;;;;7.35;4.47;;;;;;;;;;5098904;28;20043;-84
2023/07/06 01:51:21;;;;;;;9.82;5.13;;;;;;;;;;5098111;28;20024;-84
2023/07/06 01:54:03;;;;;;;6.10;4.50;;;;;;;;;;5088268;28;20051;-85
2023/07/06 01:56:45;;;;;;;7.15;4.60;;;;;;;;;;5094238;28;20106;-83
2023/07/06 01:59:17;;;;;;;9.18;5.20;;;;;;;;;;5098717;28;20063;-82
2023/07/06 02:01:47;;;;;;;7.90;4.68;;;;;;;;;;5100433;28;20052;-83
2023/07/06 02:04:13;;;;;;;6.50;4.80;;;;;;;;;;5100629;28;20055;-84
2023/07/06 02:06:39;;;;;;;7.03;4.50;;;;;;;;;;5099994;28;20035;-82
2023/07/06 02:09:05;;;;;;;6.10;4.78;;;;;;;;;;5100215;28;20032;-82
2023/07/06 02:11:32;;;;;;;6.80;4.63;;;;;;;;;;5100753;28;20031;-82
2023/07/06 02:13:57;;;;;;;5.57;3.95;;;;;;;;;;5100383;28;20047;-81
2023/07/06 02:16:22;;;;;;;4.20;3.50;;;;;;;;;;5099703;28;20032;-82
2023/07/06 02:18:48;;;;;;;5.55;4.20;;;;;;;;;;5099352;28;20035;-83
2023/07/06 02:21:14;;;;;;;6.28;4.53;;;;;;;;;;5100158;28;20538;-83
2023/07/06 02:23:39;;;;;;;4.70;4.00;;;;;;;;;;5100873;28;20028;-84
2023/07/06 02:26:05;;;;;;;5.20;4.10;;;;;;;;;;5099314;28;20439;-84
2023/07/06 02:28:30;;;;;;;6.85;4.85;;;;;;;;;;5099233;28;20032;-81
2023/07/06 02:30:57;;;;;;;5.82;4.40;;;;;;;;;;5099143;28;20032;-82
2023/07/06 02:33:25;;;;;;;8.30;4.72;;;;;;;;;;5099201;28;20036;-82
2023/07/06 02:35:51;;;;;;;4.45;3.83;;;;;;;;;;5100641;28;20025;-83
2023/07/06 02:38:19;;;;;;;6.65;4.13;;;;;;;;;;5099964;28;20040;-84
2023/07/06 02:40:46;;;;;;;8.38;4.97;;;;;;;;;;5099694;28;20032;-84
2023/07/06 02:43:12;;;;;;;7.03;4.80;;;;;;;;;;5083339;28;20378;-83
2023/07/06 02:45:37;;;;;;;8.23;5.35;;;;;;;;;;5099839;28;20027;-82
2023/07/06 02:48:05;;;;;;;7.68;4.82;;;;;;;;;;5117075;22;20044;-81
2023/07/06 02:50:31;;;;;;;9.00;5.00;;;;;;;;;;5063842;28;20462;-82
2023/07/06 02:52:57;;;;;;;7.85;4.47;;;;;;;;;;5081159;28;20048;-80
2023/07/06 02:55:23;;;;;;;8.07;4.97;;;;;;;;;;5063176;28;20040;-82
2023/07/06 02:57:49;;;;;;;6.93;4.95;;;;;;;;;;5063418;28;20032;-81
2023/07/06 03:00:16;;;;;;;7.93;5.40;;;;;;;;;;5063708;28;20043;-82
2023/07/06 03:02:43;;;;;;;11.57;6.07;;;;;;;;;;5082016;28;20027;-82
2023/07/06 03:05:09;;;;;;;9.70;5.38;;;;;;;;;;5081204;28;20033;-82
2023/07/06 03:07:34;;;;;;;7.88;5.47;;;;;;;;;;5063280;28;20086;-82
2023/07/06 03:10:04;;;;;;;9.55;5.57;;;;;;;;;;5081128;28;20052;-80
2023/07/06 03:12:33;;;;;;;8.23;5.20;;;;;;;;;;5081103;28;20085;-79
2023/07/06 03:15:02;;;;;;;9.23;5.63;;;;;;;;;;5063697;28;20025;-81
2023/07/06 03:17:28;;;;;;;9.95;5.85;;;;;;;;;;5062446;28;20048;-80
2023/07/06 03:19:53;;;;;;;8.52;5.13;;;;;;;;;;5081448;28;20099;-81
2023/07/06 03:22:18;;;;;;;7.40;5.05;;;;;;;;;;5063119;28;20063;-81
2023/07/06 03:24:46;;;;;;;8.23;4.70;;;;;;;;;;5063363;28;20035;-81
2023/07/06 03:27:12;;;;;;;12.48;5.30;;;;;;;;;;5063203;28;20120;-81
2023/07/06 03:29:37;;;;;;;7.90;6.05;;;;;;;;;;5063645;28;20447;-81
2023/07/06 03:32:04;;;;;;;8.95;5.60;;;;;;;;;;5078778;28;20029;-80
2023/07/06 03:34:29;;;;;;;7.43;5.22;;;;;;;;;;5061544;28;20025;-81
2023/07/06 03:36:55;;;;;;;8.45;4.70;;;;;;;;;;5080231;28;20046;-82
2023/07/06 03:39:20;;;;;;;5.40;4.45;;;;;;;;;;5080949;28;20074;-81
2023/07/06 03:41:45;;;;;;;6.03;4.40;;;;;;;;;;5063061;28;20033;-82
2023/07/06 03:44:11;;;;;;;7.30;4.18;;;;;;;;;;5062321;28;20028;-81
2023/07/06 03:46:36;;;;;;;6.65;4.60;;;;;;;;;;5062452;28;20025;-81
2023/07/06 03:49:03;;;;;;;5.90;4.43;;;;;;;;;;5080550;28;20085;-82
2023/07/06 03:51:30;;;;;;;8.70;4.68;;;;;;;;;;5062806;28;20025;-82
2023/07/06 03:53:55;;;;;;;7.35;4.60;;;;;;;;;;5081113;28;20108;-82
2023/07/06 03:56:27;;;;;;;8.50;4.82;;;;;;;;;;5062370;28;20060;-80
2023/07/06 03:59:02;;;;;;;8.40;5.18;;;;;;;;;;5061837;28;20075;-81
2023/07/06 04:01:29;;;;;;;11.00;5.70;;;;;;;;;;5062124;28;20037;-82
2023/07/06 04:03:55;;;;;;;11.38;5.32;;;;;;;;;;5062677;28;20032;-82
2023/07/06 04:06:24;;;;;;;7.00;5.38;;;;;;;;;;5080316;28;20078;-82
2023/07/06 04:08:51;;;;;;;14.48;5.13;;;;;;;;;;5081090;28;20099;-81
2023/07/06 04:11:17;;;;;;;7.47;4.75;;;;;;;;;;5080151;28;20036;-82
2023/07/06 04:13:42;;;;;;;10.07;4.50;;;;;;;;;;5061819;28;20024;-82
2023/07/06 04:16:16;;;;;;;5.03;4.07;;;;;;;;;;5062077;28;20036;-82
2023/07/06 04:18:44;;;;;;;4.60;3.67;;;;;;;;;;5060845;28;20082;-81
2023/07/06 04:21:11;;;;;;;5.10;4.00;;;;;;;;;;5076575;28;20024;-80
2023/07/06 04:23:36;;;;;;;8.32;4.13;;;;;;;;;;5078658;28;20506;-81
2023/07/06 04:26:02;;;;;;;7.63;3.75;;;;;;;;;;5061400;28;20028;-81
2023/07/06 04:28:27;;;;;;;5.38;3.42;;;;;;;;;;5061758;28;20047;-81
2023/07/06 04:30:53;;;;;;;6.97;3.90;;;;;;;;;;5060625;28;20506;-81
2023/07/06 04:33:19;;;;;;;4.78;3.58;;;;;;;;;;5061031;28;20390;-81
2023/07/06 04:35:52;;;;;;;5.80;3.88;;;;;;;;;;5061387;28;20024;-81
2023/07/06 04:38:18;;;;;;;5.13;3.63;;;;;;;;;;5078420;28;20060;-81
2023/07/06 04:40:43;;;;;;;6.28;3.80;;;;;;;;;;5078196;28;20032;-80
2023/07/06 04:43:11;;;;;;;5.82;3.60;;;;;;;;;;5060421;28;20037;-81
2023/07/06 04:45:37;;;;;;;5.38;3.70;;;;;;;;;;5078528;28;20071;-81
2023/07/06 04:48:05;;;;;;;6.00;3.75;;;;;;;;;;5060385;28;20074;-81
2023/07/06 04:50:31;;;;;;;4.22;3.05;;;;;;;;;;5077794;28;20493;-79
2023/07/06 04:52:59;;;;;;;9.88;3.80;;;;;;;;;;5059488;28;20033;-81
2023/07/06 04:55:26;;;;;;;4.68;3.38;;;;;;;;;;5059334;28;20036;-81
2023/07/06 04:57:56;;;;;;;7.03;3.80;;;;;;;;;;5059749;28;20041;-79
2023/07/06 05:00:25;;;;;;;4.75;3.47;;;;;;;;;;5077503;28;20028;-80
2023/07/06 05:02:58;;;;;;;5.60;3.22;;;;;;;;;;5077704;28;20032;-80
2023/07/06 05:05:25;;;;;;;4.53;3.25;;;;;;;;;;5077887;28;20029;-80
2023/07/06 05:07:51;;;;;;;4.38;3.17;;;;;;;;;;5059918;28;20040;-81
2023/07/06 05:10:16;;;;;;;4.70;3.72;;;;;;;;;;5060499;28;20498;-81
2023/07/06 05:12:43;;;;;;;9.45;3.20;;;;;;;;;;5060459;28;20035;-81
2023/07/06 05:15:10;;;;;;;5.18;3.47;;;;;;;;;;5059569;28;20097;-80
2023/07/06 05:17:37;;;;;;;5.43;3.53;;;;;;;;;;5058901;28;20088;-81
2023/07/06 05:20:03;;;;;;;5.72;3.28;;;;;;;;;;5059051;28;20033;-80
2023/07/06 05:22:29;;;;;;;5.38;4.00;;;;;;;;;;5058787;28;20140;-81
2023/07/06 05:24:54;;;;;;;4.60;3.80;;;;;;;;;;5059735;28;20044;-80
2023/07/06 05:27:19;;;;;;;5.25;3.47;;;;;;;;;;5059315;28;20074;-81
2023/07/06 05:29:45;;;;;;;5.10;3.45;;;;;;;;;;5070416;28;20399;-79
2023/07/06 05:32:10;;;;;;;6.57;3.50;;;;;;;;;;5058769;28;20040;-80
2023/07/06 05:34:36;;;;;;;4.47;3.78;;;;;;;;;;5059742;28;20025;-80
2023/07/06 05:37:02;;;;;;;4.93;3.60;;;;;;;;;;5066751;28;20045;-80
2023/07/06 05:39:27;;;;;;;5.50;3.55;;;;;;;;;;5068323;28;20094;-80
2023/07/06 05:41:53;;;;;;;6.50;3.50;;;;;;;;;;5053767;28;20100;-81
2023/07/06 05:44:18;;;;;;;6.82;3.60;;;;;;;;;;5075365;28;20060;-81
2023/07/06 05:46:44;;;;;;;4.13;3.72;;;;;;;;;;5058589;28;20028;-80
2023/07/06 05:49:09;;;;;;;4.72;3.60;;;;;;;;;;5046996;28;20057;-80
2023/07/06 05:51:34;;;;;;;4.38;3.33;;;;;;;;;;5050103;28;20039;-80
2023/07/06 05:53:59;;;;;;;6.32;3.40;;;;;;;;;;5074858;28;20364;-80
2023/07/06 05:56:25;;;;;;;8.65;3.65;;;;;;;;;;5055601;28;20402;-80
2023/07/06 05:58:51;;;;;;;4.82;3.47;;;;;;;;;;5051825;28;20106;-80
2023/07/06 06:01:18;;;;;;;8.98;3.45;;;;;;;;;;5056785;28;20431;-80
2023/07/06 06:03:43;;;;;;;5.55;3.58;;;;;;;;;;5075847;28;20440;-80
2023/07/06 06:06:10;;;;;;;5.03;3.40;;;;;;;;;;5081242;28;20024;-79
2023/07/06 06:08:36;;;;;;;5.80;3.75;;;;;;;;;;5078962;28;20059;-79
2023/07/06 06:11:01;;;;;;;6.55;3.50;;;;;;;;;;5082867;28;20510;-79
2023/07/06 06:13:27;;;;;;;5.93;3.75;;;;;;;;;;5084157;28;20052;-79
2023/07/06 06:15:52;;;;;;;5.82;3.45;;;;;;;;;;5062398;28;20506;-79
2023/07/06 06:18:18;;;;;;;4.65;3.60;;;;;;;;;;5057974;28;20092;-79
2023/07/06 06:20:44;;;;;;;5.25;3.22;;;;;;;;;;5049577;28;20021;-79
2023/07/06 06:23:10;;;;;;;4.55;3.20;;;;;;;;;;5073383;28;20033;-79
2023/07/06 06:25:38;;;;;;;8.15;3.17;;;;;;;;;;5082356;28;20033;-79
2023/07/06 06:28:04;;;;;;;6.53;3.65;;;;;;;;;;5068805;28;20066;-79
2023/07/06 06:30:29;;;;;;;6.45;3.95;;;;;;;;;;5062952;28;20025;-81
2023/07/06 06:32:56;;;;;;;5.50;3.70;;;;;;;;;;5055923;28;20043;-80
2023/07/06 06:35:29;;;;;;;5.57;3.60;;;;;;;;;;5049435;28;20036;-81
2023/07/06 06:37:57;;;;;;;3.50;3.17;;;;;;;;;;5057254;28;20040;-80
2023/07/06 06:40:23;;;;;;;6.43;3.05;;;;;;;;;;5054845;28;20032;-80
2023/07/06 06:42:49;;;;;;;3.92;3.17;;;;;;;;;;5055997;28;20044;-80
2023/07/06 06:45:16;;;;;;;3.60;3.30;;;;;;;;;;5065993;28;20474;-80
2023/07/06 06:47:41;;;;;;;5.03;3.45;;;;;;;;;;5076467;28;20021;-81
2023/07/06 06:50:13;;;;;;;2.90;2.60;;;;;;;;;;5056343;28;20045;-79
2023/07/06 06:52:42;;;;;;;2.63;2.42;;;;;;;;;;5051605;28;20025;-79
2023/07/06 06:55:08;;;;;;;3.53;2.72;;;;;;;;;;5071243;28;20070;-79
2023/07/06 06:57:34;;;;;;;3.40;3.05;;;;;;;;;;5071081;28;20507;-79
2023/07/06 06:59:59;;;;;;;4.88;2.60;;;;;;;;;;5068376;28;20478;-79
2023/07/06 07:02:25;;;;;;;2.90;2.70;;;;;;;;;;5054602;28;20048;-79
2023/07/06 07:04:50;;;;;;;3.63;3.20;;;;;;;;;;5054252;28;20048;-79
2023/07/06 07:07:16;;;;;;;3.15;2.85;;;;;;;;;;5070890;28;20051;-80
2023/07/06 07:09:42;;;;;;;4.65;3.80;;;;;;;;;;5073882;28;20044;-79
2023/07/06 07:12:07;;;;;;;3.78;3.20;;;;;;;;;;5073555;28;20059;-79
2023/07/06 07:14:33;;;;;;;3.25;2.95;;;;;;;;;;5053929;28;20025;-79
2023/07/06 07:16:58;;;;;;;3.97;3.25;;;;;;;;;;5070082;28;20383;-81
2023/07/06 07:19:23;;;;;;;3.50;2.92;;;;;;;;;;5066883;28;20067;-79
2023/07/06 07:21:50;;;;;;;3.17;2.88;;;;;;;;;;5055573;28;20039;-79
2023/07/06 07:24:16;;;;;;;3.67;3.13;;;;;;;;;;5065330;28;20083;-79
2023/07/06 07:26:41;;;;;;;3.80;3.28;;;;;;;;;;5075351;28;20024;-79
2023/07/06 07:29:07;;;;;;;3.65;3.10;;;;;;;;;;5072435;28;20115;-79
2023/07/06 07:31:32;;;;;;;3.53;2.88;;;;;;;;;;5072344;28;20067;-79
2023/07/06 07:33:57;;;;;;;3.17;2.88;;;;;;;;;;5054728;28;20118;-79
2023/07/06 07:36:23;;;;;;;3.92;3.25;;;;;;;;;;5070724;28;20044;-79
2023/07/06 07:38:49;;;;;;;3.80;2.70;;;;;;;;;;5072016;28;20039;-80
2023/07/06 07:41:19;;;;;;;3.45;3.15;;;;;;;;;;5054883;28;20548;-81
2023/07/06 07:43:46;;;;;;;3.30;2.90;;;;;;;;;;5078140;28;20036;-79
2023/07/06 07:46:13;;;;;;;3.30;2.92;;;;;;;;;;5076548;28;20064;-79
2023/07/06 07:48:48;;;;;;;4.22;3.15;;;;;;;;;;5064723;28;20090;-78
2023/07/06 07:51:18;;;;;;;3.88;3.03;;;;;;;;;;5057762;28;20066;-78
2023/07/06 07:53:44;;;;;;;4.50;2.90;;;;;;;;;;5065045;28;20034;-79
2023/07/06 07:56:10;;;;;;;3.40;3.08;;;;;;;;;;5051971;28;20049;-79
2023/07/06 07:58:37;;;;;;;3.72;3.00;;;;;;;;;;5052218;28;20025;-79
2023/07/06 08:01:07;;;;;;;4.15;3.13;;;;;;;;;;5077235;28;20167;-79
2023/07/06 08:03:33;;;;;;;3.58;3.28;;;;;;;;;;5065788;28;20037;-79
2023/07/06 08:06:05;;;;;;;4.25;3.22;;;;;;;;;;5072643;28;20103;-79
2023/07/06 08:08:32;;;;;;;5.35;3.58;;;;;;;;;;5073154;28;20040;-79
2023/07/06 08:11:01;;;;;;;5.68;3.42;;;;;;;;;;5054134;28;20039;-79
2023/07/06 08:13:27;;;;;;;5.65;3.53;;;;;;;;;;5073370;28;20142;-79
2023/07/06 08:15:52;;;;;;;4.45;3.42;;;;;;;;;;5062036;28;21509;-79
2023/07/06 08:18:17;;;;;;;5.72;3.17;;;;;;;;;;5071363;28;20033;-79
2023/07/06 08:20:47;;;;;;;4.78;3.78;;;;;;;;;;5027591;28;20080;-78
2023/07/06 08:23:13;;;;;;;5.93;3.17;;;;;;;;;;5021519;28;20031;-80
2023/07/06 08:25:40;;;;;;;8.95;3.50;;;;;;;;;;5039444;28;20498;-79
2023/07/06 08:28:12;;;;;;;3.72;3.38;;;;;;;;;;5020502;28;20036;-78
2023/07/06 08:30:40;;;;;;;3.67;3.25;;;;;;;;;;5023665;28;20111;-81
2023/07/06 08:33:09;;;;;;;4.57;3.20;;;;;;;;;;5042267;28;20017;-78
2023/07/06 08:35:35;;;;;;;4.03;3.42;;;;;;;;;;5029370;28;20025;-79
2023/07/06 08:38:04;;;;;;;3.88;3.47;;;;;;;;;;5027002;28;20043;-80
2023/07/06 08:40:30;;;;;;;4.30;3.40;;;;;;;;;;5021950;28;20029;-79
2023/07/06 08:42:57;;;;;;;3.70;3.30;;;;;;;;;;5032156;28;20052;-79
2023/07/06 08:45:25;;;;;;;5.32;3.67;;;;;;;;;;5044094;28;20493;-78
2023/07/06 08:47:51;;;;;;;3.65;3.35;;;;;;;;;;5027741;28;20020;-78
2023/07/06 08:50:29;;;;;;;5.72;3.20;;;;;;;;;;5079961;22;20052;-77
2023/07/06 08:52:56;;;;;;;4.88;3.20;;;;;;;;;;5063192;28;20046;-77
2023/07/06 08:55:22;;;;;;;5.32;3.35;;;;;;;;;;5063589;28;20402;-77
2023/07/06 08:57:49;;;;;;;3.67;3.38;;;;;;;;;;5066456;28;20040;-77
2023/07/06 09:00:22;;;;;;;4.93;3.17;;;;;;;;;;5068428;28;20367;-77
2023/07/06 09:02:49;;;;;;;5.28;3.75;;;;;;;;;;5069670;28;20028;-77
2023/07/06 09:05:16;;;;;;;5.15;3.85;;;;;;;;;;5064482;28;20040;-77
2023/07/06 09:07:44;;;;;;;4.22;3.60;;;;;;;;;;5061759;28;20041;-76
2023/07/06 09:10:13;;;;;;;4.10;3.42;;;;;;;;;;5059948;28;20124;-76
2023/07/06 09:12:39;;;;;;;5.28;3.95;;;;;;;;;;5062893;28;20094;-77
2023/07/06 09:15:08;;;;;;;7.95;3.72;;;;;;;;;;5061890;28;20462;-76
2023/07/06 09:17:34;;;;;;;3.95;3.55;;;;;;;;;;5062773;28;20391;-77
2023/07/06 09:20:02;;;;;;;5.30;3.95;;;;;;;;;;5060244;28;20383;-76
2023/07/06 09:22:27;;;;;;;4.15;3.75;;;;;;;;;;5064540;28;20071;-76
2023/07/06 09:24:59;;;;;;;6.22;3.63;;;;;;;;;;5064971;28;20056;-77
2023/07/06 09:27:28;;;;;;;5.82;3.30;;;;;;;;;;5043597;28;20029;-76
2023/07/06 09:30:02;;;;;;;5.50;3.58;;;;;;;;;;5066776;28;20024;-76
2023/07/06 09:32:32;;;;;;;6.65;3.72;;;;;;;;;;5061028;28;20044;-77
2023/07/06 09:35:08;;;;;;;4.70;3.40;;;;;;;;;;5062464;28;20131;-76
2023/07/06 09:37:42;;;;;;;3.22;2.92;;;;;;;;;;5048779;28;20036;-77
2023/07/06 09:40:11;;;;;;;3.53;3.20;;;;;;;;;;5064630;28;20037;-76
2023/07/06 09:42:36;;;;;;;6.90;3.72;;;;;;;;;;5064663;28;20387;-77
2023/07/06 09:45:13;;;;;;;3.92;3.10;;;;;;;;;;5069681;28;20028;-77
2023/07/06 09:47:45;;;;;;;4.00;3.08;;;;;;;;;;5072413;28;20039;-77
2023/07/06 09:50:18;;;;;;;4.63;3.33;;;;;;;;;;5072031;28;20074;-77
2023/07/06 09:52:43;;;;;;;4.38;3.20;;;;;;;;;;5060723;28;20568;-76
2023/07/06 09:55:24;;;;;;;6.40;3.70;;;;;;;;;;5070859;28;20040;-77
2023/07/06 09:57:51;;;;;;;4.00;3.40;;;;;;;;;;5065002;28;20041;-77
2023/07/06 10:00:22;;;;;;;4.63;3.10;;;;;;;;;;5065387;28;20118;-76
2023/07/06 10:03:13;;;;;;;7.32;3.83;;;;;;;;;;5062926;28;20020;-76
2023/07/06 10:06:07;;;;;;;3.85;3.45;;;;;;;;;;5067863;28;20098;-76
2023/07/06 10:08:48;;;;;;;3.45;3.15;;;;;;;;;;5072001;28;20103;-76
2023/07/06 10:11:28;;;;;;;4.00;3.35;;;;;;;;;;5053410;28;20037;-76
2023/07/06 10:13:58;;;;;;;4.60;3.58;;;;;;;;;;5071240;28;20041;-77
2023/07/06 10:16:34;;;;;;;3.38;3.08;;;;;;;;;;5070034;28;20041;-77
2023/07/06 10:19:31;;;;;;;4.22;3.17;;;;;;;;;;5071683;28;20029;-77
2023/07/06 10:22:10;;;;;;;5.03;3.45;;;;;;;;;;5066621;28;20111;-77
2023/07/06 10:24:45;;;;;;;4.68;3.67;;;;;;;;;;5060965;28;20567;-77
2023/07/06 10:27:18;;;;;;;4.57;3.83;;;;;;;;;;5058132;28;20093;-77
2023/07/06 10:29:50;;;;;;;5.15;3.90;;;;;;;;;;5065645;28;20032;-76
2023/07/06 10:32:26;;;;;;;4.18;3.75;;;;;;;;;;5057715;28;20033;-76
2023/07/06 10:35:25;;;;;;;3.95;3.42;;;;;;;;;;5067515;28;20109;-77
2023/07/06 10:37:51;;;;;;;6.00;4.07;;;;;;;;;;5057972;28;20055;-76
2023/07/06 10:40:25;;;;;;;4.50;3.53;;;;;;;;;;5062444;28;20399;-77
2023/07/06 10:43:09;;;;;;;;;;;;;;;;;;5065920;28;20040;-77
2023/07/06 10:45:52;;;;;;;4.47;3.78;;;;;;;;;;5070153;28;19952;-77
2023/07/06 10:48:21;;;;;;;4.10;3.60;;;;;;;;;;5067467;28;20027;-76
2023/07/06 10:50:50;;;;;;;6.43;4.38;;;;;;;;;;5066943;28;20021;-76
2023/07/06 10:53:25;;;;;;;4.85;3.72;;;;;;;;;;5065736;28;20037;-76
2023/07/06 10:56:06;;;;;;;5.60;4.10;;;;;;;;;;5067794;28;20102;-77
2023/07/06 10:58:36;;;;;;;5.35;4.03;;;;;;;;;;5070021;28;20044;-76
2023/07/06 11:01:09;;;;;;;4.90;3.72;;;;;;;;;;5064486;28;20095;-76
2023/07/06 11:03:35;;;;;;;5.18;3.50;;;;;;;;;;5059939;28;20082;-76
2023/07/06 11:06:07;;;;;;;3.97;3.58;;;;;;;;;;5068427;28;20021;-76
2023/07/06 11:09:09;;;;;;;6.60;3.50;;;;;;;;;;5067863;28;20044;-76
2023/07/06 11:12:03;;;;;;;5.72;3.70;;;;;;;;;;5051383;28;20040;-76
2023/07/06 11:14:31;;;;;;;4.22;3.83;;;;;;;;;;5054921;28;20048;-76
2023/07/06 11:17:02;;;;;;;6.43;3.78;;;;;;;;;;5056644;28;20067;-76
2023/07/06 11:19:33;;;;;;;3.72;3.28;;;;;;;;;;5065217;28;20077;-76
2023/07/06 11:22:04;;;;;;;5.00;3.70;;;;;;;;;;5061322;28;20118;-78
2023/07/06 11:24:35;;;;;;;6.45;3.80;;;;;;;;;;5069814;28;20056;-76
2023/07/06 11:27:06;;;;;;;3.53;3.22;;;;;;;;;;5069719;28;20028;-76
2023/07/06 11:29:33;;;;;;;3.85;3.40;;;;;;;;;;5066768;28;20036;-77
2023/07/06 11:32:13;;;;;;;4.57;3.70;;;;;;;;;;5066160;28;20036;-76
2023/07/06 11:35:07;;;;;;;5.05;3.45;;;;;;;;;;5045943;28;20032;-78
2023/07/06 11:37:56;;;;;;;3.90;3.50;;;;;;;;;;5062320;28;20140;-77
2023/07/06 11:40:35;;;;;;;4.07;3.63;;;;;;;;;;5063796;28;20119;-77
2023/07/06 11:43:09;;;;;;;4.00;3.60;;;;;;;;;;5066498;28;20510;-77
2023/07/06 11:45:58;;;;;;;7.15;3.53;;;;;;;;;;5065451;28;20040;-76
2023/07/06 11:48:36;;;;;;;4.65;3.95;;;;;;;;;;5062810;28;20033;-77
2023/07/06 11:51:03;;;;;;;4.18;3.45;;;;;;;;;;5065427;28;20034;-77
2023/07/06 11:53:32;;;;;;;5.63;3.50;;;;;;;;;;5066449;28;20044;-77
2023/07/06 11:56:18;;;;;;;3.75;3.40;;;;;;;;;;5061102;28;20473;-77
2023/07/06 12:01:33;;;;;;;5.55;3.72;;;;;;;;;;5059366;28;20403;-76
2023/07/06 12:04:00;;;;;;;4.80;3.70;;;;;;;;;;5057982;28;20036;-76
2023/07/06 12:06:25;;;;;;;5.50;3.60;;;;;;;;;;5066082;28;20037;-76
2023/07/06 12:08:50;;;;;;;5.75;4.03;;;;;;;;;;5057433;28;20563;-76
2023/07/06 12:11:21;;;;;;;3.95;3.55;;;;;;;;;;5068243;28;20556;-77
2023/07/06 12:13:52;;;;;;;5.60;3.50;;;;;;;;;;5069749;28;20048;-77
2023/07/06 12:16:20;;;;;;;3.65;3.35;;;;;;;;;;5066038;28;20055;-77
2023/07/06 12:19:03;;;;;;;4.57;3.88;;;;;;;;;;5067000;28;20414;-77
2023/07/06 12:21:40;;;;;;;5.20;3.45;;;;;;;;;;5047412;28;20402;-77
2023/07/06 12:24:12;;;;;;;3.75;3.40;;;;;;;;;;5060503;28;20028;-78
2023/07/06 12:26:52;;;;;;;4.40;3.40;;;;;;;;;;5068176;28;20017;-76
2023/07/06 12:29:23;;;;;;;4.28;3.45;;;;;;;;;;5057960;28;20410;-78
2023/07/06 12:31:50;;;;;;;4.05;3.63;;;;;;;;;;5066516;28;20040;-77
2023/07/06 12:34:19;;;;;;;4.95;3.58;;;;;;;;;;5064857;28;20111;-77
2023/07/06 12:36:49;;;;;;;4.80;3.70;;;;;;;;;;5062834;28;20504;-77
2023/07/06 12:39:18;;;;;;;4.38;3.70;;;;;;;;;;5067868;28;20032;-77
2023/07/06 12:41:43;;;;;;;5.43;3.90;;;;;;;;;;5067756;28;20035;-77
2023/07/06 12:44:21;;;;;;;3.80;3.40;;;;;;;;;;5065084;28;20472;-76
2023/07/06 12:46:53;;;;;;;4.82;3.63;;;;;;;;;;5065151;28;20080;-76
2023/07/06 12:49:21;;;;;;;5.43;3.50;;;;;;;;;;5065273;28;20040;-76
2023/07/06 12:51:48;;;;;;;5.57;3.92;;;;;;;;;;5056225;28;20040;-76
2023/07/06 12:54:14;;;;;;;4.95;3.45;;;;;;;;;;5070014;28;20090;-76
2023/07/06 12:56:39;;;;;;;6.38;3.78;;;;;;;;;;5064683;28;20036;-76
2023/07/06 12:59:06;;;;;;;5.28;3.85;;;;;;;;;;5067163;28;20044;-76
2023/07/06 13:01:36;;;;;;;6.20;3.30;;;;;;;;;;5059262;28;20150;-77
2023/07/06 13:04:09;;;;;;;5.07;3.70;;;;;;;;;;5059713;28;20538;-76
2023/07/06 13:06:52;;;;;;;4.78;3.83;;;;;;;;;;5060393;28;20036;-76
2023/07/06 13:09:27;;;;;;;4.37;3.80;;;;;;;;;;5065218;28;20394;-77
2023/07/06 13:11:56;;;;;;;5.80;3.63;;;;;;;;;;5070267;28;20312;-76
2023/07/06 13:14:22;;;;;;;4.15;3.67;;;;;;;;;;5043851;28;20113;-77
2023/07/06 13:16:56;;;;;;;3.25;2.95;;;;;;;;;;5052279;28;20037;-77
2023/07/06 13:19:25;;;;;;;4.38;3.47;;;;;;;;;;5072009;28;20051;-78
2023/07/06 13:21:52;;;;;;;5.82;3.50;;;;;;;;;;5069513;28;20039;-77
2023/07/06 13:24:19;;;;;;;5.57;3.58;;;;;;;;;;5068588;28;20020;-77
2023/07/06 13:26:44;;;;;;;4.13;3.72;;;;;;;;;;5069433;28;20151;-76
2023/07/06 13:29:11;;;;;;;4.80;4.05;;;;;;;;;;5069598;28;20131;-76
2023/07/06 13:31:38;;;;;;;5.82;3.83;;;;;;;;;;5074070;28;20496;-76
2023/07/06 13:34:03;;;;;;;4.35;3.67;;;;;;;;;;5059228;28;20167;-77
2023/07/06 13:36:29;;;;;;;4.78;3.92;;;;;;;;;;5064050;28;20119;-77
2023/07/06 13:38:54;;;;;;;5.80;3.55;;;;;;;;;;5075627;28;20020;-77
2023/07/06 13:41:23;;;;;;;5.20;3.60;;;;;;;;;;5074414;28;20025;-77
2023/07/06 13:43:48;;;;;;;6.88;3.58;;;;;;;;;;5067123;28;20521;-77
2023/07/06 13:46:15;;;;;;;4.55;3.90;;;;;;;;;;5070641;28;20025;-77
2023/07/06 13:48:42;;;;;;;5.63;4.18;;;;;;;;;;5048383;28;20548;-77
2023/07/06 13:51:10;;;;;;;4.38;3.60;;;;;;;;;;5058622;28;20176;-76
2023/07/06 13:53:39;;;;;;;5.47;3.63;;;;;;;;;;5062697;28;20115;-76
2023/07/06 13:56:05;;;;;;;3.97;3.60;;;;;;;;;;5058479;28;20047;-77
2023/07/06 13:58:30;;;;;;;5.00;3.80;;;;;;;;;;5072643;28;20037;-77
2023/07/06 14:00:56;;;;;;;4.38;3.97;;;;;;;;;;5073427;28;20390;-76
2023/07/06 14:03:27;;;;;;;6.00;3.70;;;;;;;;;;5055585;28;20040;-77
2023/07/06 14:05:53;;;;;;;4.25;3.45;;;;;;;;;;5067571;28;20356;-76
2023/07/06 14:08:20;;;;;;;4.15;3.75;;;;;;;;;;5071354;28;20043;-76
2023/07/06 14:10:47;;;;;;;5.32;3.60;;;;;;;;;;5071467;28;20028;-76
2023/07/06 14:13:13;;;;;;;4.72;3.47;;;;;;;;;;5073300;28;20101;-76
2023/07/06 14:15:40;;;;;;;6.97;4.05;;;;;;;;;;5071385;28;20127;-76
2023/07/06 14:18:07;;;;;;;6.90;3.78;;;;;;;;;;5067415;28;20040;-77
2023/07/06 14:20:34;;;;;;;4.85;3.75;;;;;;;;;;5065124;28;20347;-77
2023/07/06 14:23:00;;;;;;;7.55;3.60;;;;;;;;;;5070778;28;20047;-76
2023/07/06 14:25:26;;;;;;;4.40;3.60;;;;;;;;;;5070729;28;20029;-76
2023/07/06 14:27:53;;;;;;;6.85;3.80;;;;;;;;;;5064412;28;20402;-76
2023/07/06 14:30:19;;;;;;;5.30;3.67;;;;;;;;;;5063503;28;20031;-76
2023/07/06 14:32:45;;;;;;;7.60;3.28;;;;;;;;;;5068641;28;20056;-76
2023/07/06 14:35:12;;;;;;;3.95;3.42;;;;;;;;;;5067967;28;20041;-77
2023/07/06 14:37:38;;;;;;;4.57;3.40;;;;;;;;;;5064383;28;20498;-77
2023/07/06 14:40:06;;;;;;;5.82;3.60;;;;;;;;;;5059307;28;20033;-77
2023/07/06 14:42:31;;;;;;;11.23;3.88;;;;;;;;;;5065624;28;20028;-76
2023/07/06 14:44:57;;;;;;;4.72;3.85;;;;;;;;;;5072694;28;20025;-77
2023/07/06 14:47:22;;;;;;;6.95;3.70;;;;;;;;;;5065764;28;20083;-76
2023/07/06 14:49:47;;;;;;;5.63;4.07;;;;;;;;;;5059439;28;20083;-77
2023/07/06 14:52:13;;;;;;;4.60;3.78;;;;;;;;;;5069146;28;20593;-76
2023/07/06 14:54:40;;;;;;;4.63;3.28;;;;;;;;;;5063685;28;20372;-76
2023/07/06 14:57:06;;;;;;;4.88;4.00;;;;;;;;;;5060601;28;20387;-76